sensor_id;sensor_type;location;lat;lon;timestamp;P1;durP1;ratioP1;P2;durP2;ratioP2
58581;SDS011;44361;51.476;5.700;2023-03-05T00:01:27;16.00;;;3.00;;
58581;SDS011;44361;51.476;5.700;2023-03-05T00:03:57;12.27;;;2.17;;
58581;SDS011;44361;51.476;5.700;2023-03-05T00:06:24;11.63;;;1.92;;
58581;SDS011;44361;51.476;5.700;2023-03-05T00:08:52;14.88;;;2.00;;
58581;SDS011;44361;51.476;5.700;2023-03-05T00:11:20;13.38;;;2.20;;
58581;SDS011;44361;51.476;5.700;2023-03-05T00:13:46;13.77;;;2.40;;
58581;SDS011;44361;51.476;5.700;2023-03-05T00:16:13;14.55;;;2.53;;
58581;SDS011;44361;51.476;5.700;2023-03-05T00:18:40;14.68;;;2.65;;
58581;SDS011;44361;51.476;5.700;2023-03-05T00:21:23;16.13;;;2.83;;
58581;SDS011;44361;51.476;5.700;2023-03-05T00:26:18;9.27;;;1.63;;
58581;SDS011;44361;51.476;5.700;2023-03-05T00:28:44;14.25;;;2.35;;
58581;SDS011;44361;51.476;5.700;2023-03-05T00:31:18;11.02;;;1.90;;
58581;SDS011;44361;51.476;5.700;2023-03-05T00:33:50;9.82;;;2.30;;
58581;SDS011;44361;51.476;5.700;2023-03-05T00:36:20;9.93;;;1.83;;
58581;SDS011;44361;51.476;5.700;2023-03-05T00:38:46;12.65;;;2.53;;
58581;SDS011;44361;51.476;5.700;2023-03-05T00:41:11;10.13;;;2.03;;
58581;SDS011;44361;51.476;5.700;2023-03-05T00:43:37;14.82;;;2.10;;
58581;SDS011;44361;51.476;5.700;2023-03-05T00:46:03;15.55;;;2.60;;
58581;SDS011;44361;51.476;5.700;2023-03-05T00:48:28;12.65;;;2.35;;
58581;SDS011;44361;51.476;5.700;2023-03-05T00:50:54;8.90;;;2.10;;
58581;SDS011;44361;51.476;5.700;2023-03-05T00:53:20;10.45;;;2.50;;
58581;SDS011;44361;51.476;5.700;2023-03-05T00:55:45;13.88;;;2.05;;
58581;SDS011;44361;51.476;5.700;2023-03-05T00:58:11;10.15;;;2.00;;
58581;SDS011;44361;51.476;5.700;2023-03-05T01:00:36;13.68;;;2.85;;
58581;SDS011;44361;51.476;5.700;2023-03-05T01:03:02;11.75;;;2.13;;
58581;SDS011;44361;51.476;5.700;2023-03-05T01:05:28;12.32;;;2.35;;
58581;SDS011;44361;51.476;5.700;2023-03-05T01:07:54;9.13;;;2.00;;
58581;SDS011;44361;51.476;5.700;2023-03-05T01:10:20;14.32;;;2.92;;
58581;SDS011;44361;51.476;5.700;2023-03-05T01:12:47;12.70;;;2.13;;
58581;SDS011;44361;51.476;5.700;2023-03-05T01:15:13;15.85;;;2.30;;
58581;SDS011;44361;51.476;5.700;2023-03-05T01:17:39;17.33;;;2.85;;
58581;SDS011;44361;51.476;5.700;2023-03-05T01:20:05;9.23;;;2.00;;
58581;SDS011;44361;51.476;5.700;2023-03-05T01:22:32;8.45;;;2.50;;
58581;SDS011;44361;51.476;5.700;2023-03-05T01:24:57;19.48;;;4.53;;
58581;SDS011;44361;51.476;5.700;2023-03-05T01:27:23;16.55;;;3.42;;
58581;SDS011;44361;51.476;5.700;2023-03-05T01:29:48;12.30;;;2.95;;
58581;SDS011;44361;51.476;5.700;2023-03-05T01:32:14;41.97;;;16.27;;
58581;SDS011;44361;51.476;5.700;2023-03-05T01:34:39;25.65;;;8.18;;
58581;SDS011;44361;51.476;5.700;2023-03-05T01:37:06;18.98;;;5.43;;
58581;SDS011;44361;51.476;5.700;2023-03-05T01:39:32;11.63;;;2.85;;
58581;SDS011;44361;51.476;5.700;2023-03-05T01:41:57;8.90;;;3.17;;
58581;SDS011;44361;51.476;5.700;2023-03-05T01:44:25;17.67;;;2.45;;
58581;SDS011;44361;51.476;5.700;2023-03-05T01:46:52;12.38;;;2.67;;
58581;SDS011;44361;51.476;5.700;2023-03-05T01:49:28;12.38;;;2.75;;
58581;SDS011;44361;51.476;5.700;2023-03-05T01:54:30;13.88;;;3.00;;
58581;SDS011;44361;51.476;5.700;2023-03-05T01:57:00;14.77;;;2.90;;
58581;SDS011;44361;51.476;5.700;2023-03-05T01:59:31;8.30;;;2.70;;
58581;SDS011;44361;51.476;5.700;2023-03-05T02:01:57;14.07;;;2.70;;
58581;SDS011;44361;51.476;5.700;2023-03-05T02:04:26;20.33;;;2.83;;
58581;SDS011;44361;51.476;5.700;2023-03-05T02:06:56;11.32;;;2.80;;
58581;SDS011;44361;51.476;5.700;2023-03-05T02:09:22;14.95;;;3.10;;
58581;SDS011;44361;51.476;5.700;2023-03-05T02:11:48;7.25;;;2.20;;
58581;SDS011;44361;51.476;5.700;2023-03-05T02:14:14;10.10;;;2.58;;
58581;SDS011;44361;51.476;5.700;2023-03-05T02:16:39;14.23;;;2.00;;
58581;SDS011;44361;51.476;5.700;2023-03-05T02:19:07;9.40;;;2.20;;
58581;SDS011;44361;51.476;5.700;2023-03-05T02:21:38;8.95;;;2.30;;
58581;SDS011;44361;51.476;5.700;2023-03-05T02:24:13;12.75;;;2.60;;
58581;SDS011;44361;51.476;5.700;2023-03-05T02:26:41;14.45;;;2.63;;
58581;SDS011;44361;51.476;5.700;2023-03-05T02:29:09;10.65;;;2.45;;
58581;SDS011;44361;51.476;5.700;2023-03-05T02:31:38;10.82;;;2.10;;
58581;SDS011;44361;51.476;5.700;2023-03-05T02:34:03;10.52;;;2.42;;
58581;SDS011;44361;51.476;5.700;2023-03-05T02:36:30;13.10;;;2.65;;
58581;SDS011;44361;51.476;5.700;2023-03-05T02:38:55;9.93;;;2.45;;
58581;SDS011;44361;51.476;5.700;2023-03-05T02:41:23;13.13;;;2.28;;
58581;SDS011;44361;51.476;5.700;2023-03-05T02:43:49;12.38;;;2.30;;
58581;SDS011;44361;51.476;5.700;2023-03-05T02:46:14;11.65;;;3.17;;
58581;SDS011;44361;51.476;5.700;2023-03-05T02:48:40;14.98;;;2.90;;
58581;SDS011;44361;51.476;5.700;2023-03-05T02:51:06;8.00;;;2.50;;
58581;SDS011;44361;51.476;5.700;2023-03-05T02:53:32;14.75;;;2.92;;
58581;SDS011;44361;51.476;5.700;2023-03-05T02:55:58;12.73;;;2.55;;
58581;SDS011;44361;51.476;5.700;2023-03-05T02:58:24;7.78;;;2.20;;
58581;SDS011;44361;51.476;5.700;2023-03-05T03:00:49;10.95;;;2.45;;
58581;SDS011;44361;51.476;5.700;2023-03-05T03:03:15;10.98;;;2.47;;
58581;SDS011;44361;51.476;5.700;2023-03-05T03:05:40;9.10;;;2.20;;
58581;SDS011;44361;51.476;5.700;2023-03-05T03:08:06;9.75;;;2.20;;
58581;SDS011;44361;51.476;5.700;2023-03-05T03:10:32;14.05;;;2.55;;
58581;SDS011;44361;51.476;5.700;2023-03-05T03:12:58;8.13;;;2.15;;
58581;SDS011;44361;51.476;5.700;2023-03-05T03:15:23;7.95;;;2.30;;
58581;SDS011;44361;51.476;5.700;2023-03-05T03:17:49;16.23;;;2.45;;
58581;SDS011;44361;51.476;5.700;2023-03-05T03:20:15;11.73;;;2.38;;
58581;SDS011;44361;51.476;5.700;2023-03-05T03:22:42;11.40;;;2.42;;
58581;SDS011;44361;51.476;5.700;2023-03-05T03:25:09;11.45;;;2.47;;
58581;SDS011;44361;51.476;5.700;2023-03-05T03:27:38;13.15;;;2.35;;
58581;SDS011;44361;51.476;5.700;2023-03-05T03:30:04;14.68;;;2.22;;
58581;SDS011;44361;51.476;5.700;2023-03-05T03:32:31;11.55;;;2.40;;
58581;SDS011;44361;51.476;5.700;2023-03-05T03:34:57;10.70;;;2.20;;
58581;SDS011;44361;51.476;5.700;2023-03-05T03:37:23;15.02;;;2.72;;
58581;SDS011;44361;51.476;5.700;2023-03-05T03:39:49;12.20;;;2.70;;
58581;SDS011;44361;51.476;5.700;2023-03-05T03:42:18;8.15;;;2.30;;
58581;SDS011;44361;51.476;5.700;2023-03-05T03:44:45;13.35;;;2.50;;
58581;SDS011;44361;51.476;5.700;2023-03-05T03:47:10;13.95;;;2.90;;
58581;SDS011;44361;51.476;5.700;2023-03-05T03:49:36;13.43;;;2.60;;
58581;SDS011;44361;51.476;5.700;2023-03-05T03:52:02;14.57;;;2.33;;
58581;SDS011;44361;51.476;5.700;2023-03-05T03:54:27;14.15;;;3.03;;
58581;SDS011;44361;51.476;5.700;2023-03-05T03:56:53;11.55;;;2.55;;
58581;SDS011;44361;51.476;5.700;2023-03-05T03:59:19;16.02;;;3.05;;
58581;SDS011;44361;51.476;5.700;2023-03-05T04:01:44;12.35;;;2.40;;
58581;SDS011;44361;51.476;5.700;2023-03-05T04:04:11;9.55;;;2.35;;
58581;SDS011;44361;51.476;5.700;2023-03-05T04:06:37;7.00;;;1.98;;
58581;SDS011;44361;51.476;5.700;2023-03-05T04:09:03;7.43;;;2.42;;
58581;SDS011;44361;51.476;5.700;2023-03-05T04:11:29;11.75;;;2.45;;
58581;SDS011;44361;51.476;5.700;2023-03-05T04:13:55;8.38;;;1.75;;
58581;SDS011;44361;51.476;5.700;2023-03-05T04:16:20;11.48;;;2.88;;
58581;SDS011;44361;51.476;5.700;2023-03-05T04:18:46;12.07;;;2.10;;
58581;SDS011;44361;51.476;5.700;2023-03-05T04:21:11;13.40;;;2.47;;
58581;SDS011;44361;51.476;5.700;2023-03-05T04:23:37;11.52;;;2.05;;
58581;SDS011;44361;51.476;5.700;2023-03-05T04:26:04;8.13;;;2.10;;
58581;SDS011;44361;51.476;5.700;2023-03-05T04:28:30;12.60;;;2.38;;
58581;SDS011;44361;51.476;5.700;2023-03-05T04:30:56;8.90;;;2.30;;
58581;SDS011;44361;51.476;5.700;2023-03-05T04:33:21;8.55;;;2.33;;
58581;SDS011;44361;51.476;5.700;2023-03-05T04:35:47;13.25;;;2.17;;
58581;SDS011;44361;51.476;5.700;2023-03-05T04:38:12;11.40;;;2.60;;
58581;SDS011;44361;51.476;5.700;2023-03-05T04:40:38;11.88;;;2.30;;
58581;SDS011;44361;51.476;5.700;2023-03-05T04:43:04;12.30;;;3.10;;
58581;SDS011;44361;51.476;5.700;2023-03-05T04:45:30;17.05;;;3.00;;
58581;SDS011;44361;51.476;5.700;2023-03-05T04:47:56;9.77;;;2.58;;
58581;SDS011;44361;51.476;5.700;2023-03-05T04:50:21;9.35;;;2.35;;
58581;SDS011;44361;51.476;5.700;2023-03-05T04:52:47;13.40;;;2.60;;
58581;SDS011;44361;51.476;5.700;2023-03-05T04:55:13;13.02;;;2.78;;
58581;SDS011;44361;51.476;5.700;2023-03-05T04:57:40;7.40;;;2.60;;
58581;SDS011;44361;51.476;5.700;2023-03-05T05:00:07;7.78;;;2.70;;
58581;SDS011;44361;51.476;5.700;2023-03-05T05:02:38;15.90;;;3.20;;
58581;SDS011;44361;51.476;5.700;2023-03-05T05:05:05;7.97;;;2.40;;
58581;SDS011;44361;51.476;5.700;2023-03-05T05:07:30;11.73;;;3.25;;
58581;SDS011;44361;51.476;5.700;2023-03-05T05:09:56;11.50;;;3.08;;
58581;SDS011;44361;51.476;5.700;2023-03-05T05:12:22;12.70;;;2.95;;
58581;SDS011;44361;51.476;5.700;2023-03-05T05:14:48;11.75;;;2.72;;
58581;SDS011;44361;51.476;5.700;2023-03-05T05:17:13;13.13;;;2.92;;
58581;SDS011;44361;51.476;5.700;2023-03-05T05:19:39;9.65;;;2.25;;
58581;SDS011;44361;51.476;5.700;2023-03-05T05:22:04;11.25;;;2.78;;
58581;SDS011;44361;51.476;5.700;2023-03-05T05:24:30;7.22;;;2.05;;
58581;SDS011;44361;51.476;5.700;2023-03-05T05:26:55;9.77;;;2.92;;
58581;SDS011;44361;51.476;5.700;2023-03-05T05:29:21;9.82;;;2.33;;
58581;SDS011;44361;51.476;5.700;2023-03-05T05:31:47;12.85;;;2.65;;
58581;SDS011;44361;51.476;5.700;2023-03-05T05:34:13;10.23;;;2.60;;
58581;SDS011;44361;51.476;5.700;2023-03-05T05:36:38;9.50;;;2.58;;
58581;SDS011;44361;51.476;5.700;2023-03-05T05:39:04;7.30;;;1.90;;
58581;SDS011;44361;51.476;5.700;2023-03-05T05:41:29;7.80;;;2.22;;
58581;SDS011;44361;51.476;5.700;2023-03-05T05:43:55;8.02;;;2.83;;
58581;SDS011;44361;51.476;5.700;2023-03-05T05:46:21;10.40;;;2.60;;
58581;SDS011;44361;51.476;5.700;2023-03-05T05:48:48;13.13;;;3.22;;
58581;SDS011;44361;51.476;5.700;2023-03-05T05:51:15;12.50;;;3.08;;
58581;SDS011;44361;51.476;5.700;2023-03-05T05:53:43;15.55;;;3.35;;
58581;SDS011;44361;51.476;5.700;2023-03-05T05:56:09;11.32;;;3.47;;
58581;SDS011;44361;51.476;5.700;2023-03-05T05:58:37;15.07;;;3.25;;
58581;SDS011;44361;51.476;5.700;2023-03-05T06:01:14;10.73;;;2.85;;
58581;SDS011;44361;51.476;5.700;2023-03-05T06:03:46;12.80;;;3.22;;
58581;SDS011;44361;51.476;5.700;2023-03-05T06:06:13;14.55;;;3.13;;
58581;SDS011;44361;51.476;5.700;2023-03-05T06:08:40;17.20;;;3.72;;
58581;SDS011;44361;51.476;5.700;2023-03-05T06:11:06;10.45;;;4.00;;
58581;SDS011;44361;51.476;5.700;2023-03-05T06:13:32;15.23;;;3.60;;
58581;SDS011;44361;51.476;5.700;2023-03-05T06:15:59;10.02;;;3.55;;
58581;SDS011;44361;51.476;5.700;2023-03-05T06:18:27;10.45;;;3.72;;
58581;SDS011;44361;51.476;5.700;2023-03-05T06:20:54;10.32;;;3.90;;
58581;SDS011;44361;51.476;5.700;2023-03-05T06:23:24;13.32;;;3.80;;
58581;SDS011;44361;51.476;5.700;2023-03-05T06:25:50;13.63;;;3.55;;
58581;SDS011;44361;51.476;5.700;2023-03-05T06:28:16;16.15;;;3.88;;
58581;SDS011;44361;51.476;5.700;2023-03-05T06:30:42;12.43;;;3.45;;
58581;SDS011;44361;51.476;5.700;2023-03-05T06:33:07;8.65;;;3.28;;
58581;SDS011;44361;51.476;5.700;2023-03-05T06:35:33;12.63;;;4.20;;
58581;SDS011;44361;51.476;5.700;2023-03-05T06:37:59;10.25;;;4.03;;
58581;SDS011;44361;51.476;5.700;2023-03-05T06:40:24;12.27;;;3.90;;
58581;SDS011;44361;51.476;5.700;2023-03-05T06:42:50;10.60;;;4.32;;
58581;SDS011;44361;51.476;5.700;2023-03-05T06:45:15;12.27;;;3.85;;
58581;SDS011;44361;51.476;5.700;2023-03-05T06:47:41;14.52;;;3.70;;
58581;SDS011;44361;51.476;5.700;2023-03-05T06:50:07;11.63;;;3.90;;
58581;SDS011;44361;51.476;5.700;2023-03-05T06:52:33;12.27;;;3.80;;
58581;SDS011;44361;51.476;5.700;2023-03-05T06:54:58;13.35;;;4.22;;
58581;SDS011;44361;51.476;5.700;2023-03-05T06:57:24;11.85;;;4.13;;
58581;SDS011;44361;51.476;5.700;2023-03-05T06:59:49;19.10;;;4.80;;
58581;SDS011;44361;51.476;5.700;2023-03-05T07:02:15;16.52;;;5.10;;
58581;SDS011;44361;51.476;5.700;2023-03-05T07:04:42;16.77;;;5.05;;
58581;SDS011;44361;51.476;5.700;2023-03-05T07:07:08;13.55;;;5.13;;
58581;SDS011;44361;51.476;5.700;2023-03-05T07:09:34;9.93;;;4.65;;
58581;SDS011;44361;51.476;5.700;2023-03-05T07:12:02;18.77;;;6.20;;
58581;SDS011;44361;51.476;5.700;2023-03-05T07:14:27;17.92;;;6.30;;
58581;SDS011;44361;51.476;5.700;2023-03-05T07:16:53;15.00;;;5.95;;
58581;SDS011;44361;51.476;5.700;2023-03-05T07:19:18;21.65;;;5.95;;
58581;SDS011;44361;51.476;5.700;2023-03-05T07:21:44;17.17;;;6.20;;
58581;SDS011;44361;51.476;5.700;2023-03-05T07:24:10;19.27;;;6.32;;
58581;SDS011;44361;51.476;5.700;2023-03-05T07:26:37;17.08;;;6.72;;
58581;SDS011;44361;51.476;5.700;2023-03-05T07:29:03;18.52;;;6.72;;
58581;SDS011;44361;51.476;5.700;2023-03-05T07:31:28;13.40;;;6.35;;
58581;SDS011;44361;51.476;5.700;2023-03-05T07:33:55;19.52;;;6.72;;
58581;SDS011;44361;51.476;5.700;2023-03-05T07:36:22;17.92;;;7.93;;
58581;SDS011;44361;51.476;5.700;2023-03-05T07:38:48;20.05;;;6.88;;
58581;SDS011;44361;51.476;5.700;2023-03-05T07:41:14;17.88;;;6.25;;
58581;SDS011;44361;51.476;5.700;2023-03-05T07:43:45;12.57;;;6.55;;
58581;SDS011;44361;51.476;5.700;2023-03-05T07:46:13;12.98;;;6.30;;
58581;SDS011;44361;51.476;5.700;2023-03-05T07:48:39;15.60;;;5.60;;
58581;SDS011;44361;51.476;5.700;2023-03-05T07:51:06;16.85;;;6.13;;
58581;SDS011;44361;51.476;5.700;2023-03-05T07:53:34;12.45;;;5.85;;
58581;SDS011;44361;51.476;5.700;2023-03-05T07:56:00;18.55;;;6.05;;
58581;SDS011;44361;51.476;5.700;2023-03-05T07:58:25;16.88;;;5.50;;
58581;SDS011;44361;51.476;5.700;2023-03-05T08:00:51;12.85;;;5.82;;
58581;SDS011;44361;51.476;5.700;2023-03-05T08:03:17;11.02;;;4.88;;
58581;SDS011;44361;51.476;5.700;2023-03-05T08:05:42;15.45;;;5.47;;
58581;SDS011;44361;51.476;5.700;2023-03-05T08:08:08;11.65;;;5.53;;
58581;SDS011;44361;51.476;5.700;2023-03-05T08:10:34;12.15;;;5.85;;
58581;SDS011;44361;51.476;5.700;2023-03-05T08:13:00;11.70;;;5.15;;
58581;SDS011;44361;51.476;5.700;2023-03-05T08:15:26;13.82;;;5.90;;
58581;SDS011;44361;51.476;5.700;2023-03-05T08:17:51;13.07;;;5.50;;
58581;SDS011;44361;51.476;5.700;2023-03-05T08:20:17;13.43;;;5.60;;
58581;SDS011;44361;51.476;5.700;2023-03-05T08:22:43;9.30;;;5.55;;
58581;SDS011;44361;51.476;5.700;2023-03-05T08:25:09;7.20;;;4.90;;
58581;SDS011;44361;51.476;5.700;2023-03-05T08:27:42;9.85;;;5.30;;
58581;SDS011;44361;51.476;5.700;2023-03-05T08:30:14;9.95;;;5.00;;
58581;SDS011;44361;51.476;5.700;2023-03-05T08:32:42;13.25;;;4.72;;
58581;SDS011;44361;51.476;5.700;2023-03-05T08:35:08;10.68;;;5.47;;
58581;SDS011;44361;51.476;5.700;2023-03-05T08:37:34;8.85;;;4.97;;
58581;SDS011;44361;51.476;5.700;2023-03-05T08:40:00;9.82;;;5.05;;
58581;SDS011;44361;51.476;5.700;2023-03-05T08:42:26;8.50;;;4.78;;
58581;SDS011;44361;51.476;5.700;2023-03-05T08:44:51;14.23;;;4.35;;
58581;SDS011;44361;51.476;5.700;2023-03-05T08:47:17;9.73;;;4.88;;
58581;SDS011;44361;51.476;5.700;2023-03-05T08:49:44;13.15;;;4.93;;
58581;SDS011;44361;51.476;5.700;2023-03-05T08:52:10;6.90;;;3.85;;
58581;SDS011;44361;51.476;5.700;2023-03-05T08:54:36;10.73;;;4.68;;
58581;SDS011;44361;51.476;5.700;2023-03-05T08:57:02;11.23;;;4.25;;
58581;SDS011;44361;51.476;5.700;2023-03-05T08:59:28;8.77;;;3.75;;
58581;SDS011;44361;51.476;5.700;2023-03-05T09:01:54;8.93;;;3.55;;
58581;SDS011;44361;51.476;5.700;2023-03-05T09:04:19;9.82;;;3.70;;
58581;SDS011;44361;51.476;5.700;2023-03-05T09:06:45;6.72;;;3.40;;
58581;SDS011;44361;51.476;5.700;2023-03-05T09:09:10;7.90;;;3.67;;
58581;SDS011;44361;51.476;5.700;2023-03-05T09:11:37;10.27;;;3.53;;
58581;SDS011;44361;51.476;5.700;2023-03-05T09:14:04;6.15;;;3.20;;
58581;SDS011;44361;51.476;5.700;2023-03-05T09:16:31;6.47;;;2.75;;
58581;SDS011;44361;51.476;5.700;2023-03-05T09:18:57;4.38;;;2.78;;
58581;SDS011;44361;51.476;5.700;2023-03-05T09:21:23;6.60;;;2.58;;
58581;SDS011;44361;51.476;5.700;2023-03-05T09:23:49;5.60;;;2.42;;
58581;SDS011;44361;51.476;5.700;2023-03-05T09:26:14;6.07;;;2.60;;
58581;SDS011;44361;51.476;5.700;2023-03-05T09:28:43;5.40;;;2.55;;
58581;SDS011;44361;51.476;5.700;2023-03-05T09:31:09;9.63;;;2.40;;
58581;SDS011;44361;51.476;5.700;2023-03-05T09:33:36;5.35;;;2.25;;
58581;SDS011;44361;51.476;5.700;2023-03-05T09:36:02;3.53;;;1.48;;
58581;SDS011;44361;51.476;5.700;2023-03-05T09:38:30;4.88;;;1.75;;
58581;SDS011;44361;51.476;5.700;2023-03-05T09:52:33;5.70;;;1.00;;
58581;SDS011;44361;51.476;5.700;2023-03-05T09:55:00;5.13;;;1.23;;
58581;SDS011;44361;51.476;5.700;2023-03-05T09:57:28;4.05;;;1.00;;
58581;SDS011;44361;51.476;5.700;2023-03-05T10:00:06;3.13;;;1.05;;
58581;SDS011;44361;51.476;5.700;2023-03-05T10:02:49;3.60;;;1.52;;
58581;SDS011;44361;51.476;5.700;2023-03-05T10:05:44;2.72;;;1.17;;
58581;SDS011;44361;51.476;5.700;2023-03-05T10:08:21;4.90;;;1.30;;
58581;SDS011;44361;51.476;5.700;2023-03-05T10:10:52;3.03;;;1.40;;
58581;SDS011;44361;51.476;5.700;2023-03-05T10:13:23;3.95;;;1.33;;
58581;SDS011;44361;51.476;5.700;2023-03-05T10:21:27;3.35;;;0.90;;
58581;SDS011;44361;51.476;5.700;2023-03-05T10:35:11;2.85;;;1.00;;
58581;SDS011;44361;51.476;5.700;2023-03-05T10:40:44;2.58;;;0.90;;
58581;SDS011;44361;51.476;5.700;2023-03-05T10:45:48;6.32;;;1.10;;
58581;SDS011;44361;51.476;5.700;2023-03-05T10:51:08;1.98;;;0.63;;
58581;SDS011;44361;51.476;5.700;2023-03-05T10:56:11;3.17;;;0.77;;
58581;SDS011;44361;51.476;5.700;2023-03-05T10:58:37;1.52;;;0.60;;
58581;SDS011;44361;51.476;5.700;2023-03-05T11:03:48;3.10;;;0.70;;
58581;SDS011;44361;51.476;5.700;2023-03-05T11:06:26;3.60;;;0.68;;
58581;SDS011;44361;51.476;5.700;2023-03-05T11:14:43;2.80;;;0.98;;
58581;SDS011;44361;51.476;5.700;2023-03-05T11:19:56;2.63;;;0.82;;
58581;SDS011;44361;51.476;5.700;2023-03-05T11:22:49;1.92;;;0.82;;
58581;SDS011;44361;51.476;5.700;2023-03-05T11:25:27;4.75;;;0.80;;
58581;SDS011;44361;51.476;5.700;2023-03-05T11:27:54;1.10;;;0.80;;
58581;SDS011;44361;51.476;5.700;2023-03-05T11:30:28;1.48;;;0.57;;
58581;SDS011;44361;51.476;5.700;2023-03-05T11:33:12;2.33;;;0.70;;
58581;SDS011;44361;51.476;5.700;2023-03-05T11:35:41;2.80;;;0.98;;
58581;SDS011;44361;51.476;5.700;2023-03-05T11:38:24;2.90;;;0.80;;
58581;SDS011;44361;51.476;5.700;2023-03-05T11:40:51;3.45;;;0.70;;
58581;SDS011;44361;51.476;5.700;2023-03-05T11:43:20;2.05;;;0.70;;
58581;SDS011;44361;51.476;5.700;2023-03-05T11:45:48;1.17;;;1.02;;
58581;SDS011;44361;51.476;5.700;2023-03-05T11:48:20;3.08;;;0.60;;
58581;SDS011;44361;51.476;5.700;2023-03-05T11:50:55;1.58;;;0.30;;
58581;SDS011;44361;51.476;5.700;2023-03-05T11:53:26;1.63;;;0.52;;
58581;SDS011;44361;51.476;5.700;2023-03-05T11:55:55;0.93;;;0.40;;
58581;SDS011;44361;51.476;5.700;2023-03-05T11:58:33;2.72;;;0.80;;
58581;SDS011;44361;51.476;5.700;2023-03-05T12:01:05;2.78;;;1.00;;
58581;SDS011;44361;51.476;5.700;2023-03-05T12:03:40;4.00;;;0.85;;
58581;SDS011;44361;51.476;5.700;2023-03-05T12:07:08;2.47;;;0.77;;
58581;SDS011;44361;51.476;5.700;2023-03-05T12:09:51;2.92;;;0.88;;
58581;SDS011;44361;51.476;5.700;2023-03-05T12:12:17;1.38;;;0.70;;
58581;SDS011;44361;51.476;5.700;2023-03-05T12:20:16;4.25;;;0.55;;
58581;SDS011;44361;51.476;5.700;2023-03-05T12:22:50;3.10;;;0.68;;
58581;SDS011;44361;51.476;5.700;2023-03-05T12:28:14;1.20;;;0.80;;
58581;SDS011;44361;51.476;5.700;2023-03-05T12:36:59;2.03;;;0.80;;
58581;SDS011;44361;51.476;5.700;2023-03-05T12:47:37;1.40;;;0.80;;
58581;SDS011;44361;51.476;5.700;2023-03-05T12:50:03;3.45;;;0.80;;
58581;SDS011;44361;51.476;5.700;2023-03-05T12:52:31;2.30;;;0.68;;
58581;SDS011;44361;51.476;5.700;2023-03-05T12:55:17;5.05;;;0.70;;
58581;SDS011;44361;51.476;5.700;2023-03-05T12:57:49;3.10;;;0.70;;
58581;SDS011;44361;51.476;5.700;2023-03-05T13:00:28;1.60;;;0.63;;
58581;SDS011;44361;51.476;5.700;2023-03-05T13:03:01;3.78;;;0.77;;
58581;SDS011;44361;51.476;5.700;2023-03-05T13:05:36;3.03;;;0.80;;
58581;SDS011;44361;51.476;5.700;2023-03-05T13:08:22;2.15;;;0.57;;
58581;SDS011;44361;51.476;5.700;2023-03-05T13:11:07;1.98;;;0.80;;
58581;SDS011;44361;51.476;5.700;2023-03-05T13:13:42;3.03;;;0.63;;
58581;SDS011;44361;51.476;5.700;2023-03-05T13:16:21;2.47;;;0.60;;
58581;SDS011;44361;51.476;5.700;2023-03-05T13:18:50;1.73;;;0.73;;
58581;SDS011;44361;51.476;5.700;2023-03-05T13:21:18;2.35;;;0.85;;
58581;SDS011;44361;51.476;5.700;2023-03-05T13:23:49;2.65;;;0.80;;
58581;SDS011;44361;51.476;5.700;2023-03-05T13:26:21;1.30;;;0.63;;
58581;SDS011;44361;51.476;5.700;2023-03-05T13:31:46;1.83;;;0.52;;
58581;SDS011;44361;51.476;5.700;2023-03-05T13:36:58;1.30;;;0.70;;
58581;SDS011;44361;51.476;5.700;2023-03-05T13:39:48;2.30;;;0.70;;
58581;SDS011;44361;51.476;5.700;2023-03-05T13:44:43;1.52;;;0.60;;
58581;SDS011;44361;51.476;5.700;2023-03-05T13:47:21;2.45;;;0.70;;
58581;SDS011;44361;51.476;5.700;2023-03-05T13:49:58;2.50;;;0.75;;
58581;SDS011;44361;51.476;5.700;2023-03-05T13:52:32;3.25;;;0.63;;
58581;SDS011;44361;51.476;5.700;2023-03-05T13:54:59;2.33;;;0.80;;
58581;SDS011;44361;51.476;5.700;2023-03-05T13:57:33;3.42;;;0.77;;
58581;SDS011;44361;51.476;5.700;2023-03-05T14:00:23;2.08;;;0.57;;
58581;SDS011;44361;51.476;5.700;2023-03-05T14:02:51;1.90;;;0.65;;
58581;SDS011;44361;51.476;5.700;2023-03-05T14:05:18;1.88;;;0.70;;
58581;SDS011;44361;51.476;5.700;2023-03-05T14:07:45;1.85;;;0.60;;
58581;SDS011;44361;51.476;5.700;2023-03-05T14:12:57;6.90;;;0.82;;
58581;SDS011;44361;51.476;5.700;2023-03-05T14:15:27;2.80;;;0.60;;
58581;SDS011;44361;51.476;5.700;2023-03-05T14:20:37;2.88;;;0.70;;
58581;SDS011;44361;51.476;5.700;2023-03-05T14:28:42;2.73;;;0.77;;
58581;SDS011;44361;51.476;5.700;2023-03-05T14:31:14;2.60;;;1.05;;
58581;SDS011;44361;51.476;5.700;2023-03-05T14:33:40;2.50;;;0.90;;
58581;SDS011;44361;51.476;5.700;2023-03-05T14:36:06;4.13;;;1.40;;
58581;SDS011;44361;51.476;5.700;2023-03-05T14:38:34;3.40;;;0.90;;
58581;SDS011;44361;51.476;5.700;2023-03-05T14:43:59;2.42;;;0.85;;
58581;SDS011;44361;51.476;5.700;2023-03-05T14:46:25;1.83;;;1.10;;
58581;SDS011;44361;51.476;5.700;2023-03-05T14:48:51;4.25;;;1.75;;
58581;SDS011;44361;51.476;5.700;2023-03-05T14:51:17;3.53;;;1.02;;
58581;SDS011;44361;51.476;5.700;2023-03-05T14:53:44;1.75;;;1.10;;
58581;SDS011;44361;51.476;5.700;2023-03-05T14:56:21;1.42;;;0.85;;
58581;SDS011;44361;51.476;5.700;2023-03-05T14:58:48;2.70;;;1.08;;
58581;SDS011;44361;51.476;5.700;2023-03-05T15:01:14;2.53;;;0.90;;
58581;SDS011;44361;51.476;5.700;2023-03-05T15:03:39;1.88;;;1.05;;
58581;SDS011;44361;51.476;5.700;2023-03-05T15:06:05;2.65;;;0.90;;
58581;SDS011;44361;51.476;5.700;2023-03-05T15:08:33;2.55;;;0.80;;
58581;SDS011;44361;51.476;5.700;2023-03-05T15:10:59;3.45;;;0.77;;
58581;SDS011;44361;51.476;5.700;2023-03-05T15:13:25;2.45;;;0.80;;
58581;SDS011;44361;51.476;5.700;2023-03-05T15:15:50;1.35;;;0.65;;
58581;SDS011;44361;51.476;5.700;2023-03-05T15:18:17;1.52;;;0.65;;
58581;SDS011;44361;51.476;5.700;2023-03-05T15:20:44;2.55;;;0.98;;
58581;SDS011;44361;51.476;5.700;2023-03-05T15:23:12;3.22;;;0.77;;
58581;SDS011;44361;51.476;5.700;2023-03-05T15:25:38;2.13;;;0.85;;
58581;SDS011;44361;51.476;5.700;2023-03-05T15:28:04;5.78;;;1.15;;
58581;SDS011;44361;51.476;5.700;2023-03-05T15:30:37;5.63;;;1.10;;
58581;SDS011;44361;51.476;5.700;2023-03-05T15:33:07;4.15;;;1.10;;
58581;SDS011;44361;51.476;5.700;2023-03-05T15:35:34;1.95;;;0.98;;
58581;SDS011;44361;51.476;5.700;2023-03-05T15:38:00;2.47;;;1.00;;
58581;SDS011;44361;51.476;5.700;2023-03-05T15:40:26;3.05;;;1.10;;
58581;SDS011;44361;51.476;5.700;2023-03-05T15:42:52;2.67;;;1.00;;
58581;SDS011;44361;51.476;5.700;2023-03-05T15:45:19;3.53;;;1.00;;
58581;SDS011;44361;51.476;5.700;2023-03-05T15:47:47;3.53;;;1.10;;
58581;SDS011;44361;51.476;5.700;2023-03-05T15:50:14;5.55;;;1.40;;
58581;SDS011;44361;51.476;5.700;2023-03-05T15:52:39;1.90;;;1.05;;
58581;SDS011;44361;51.476;5.700;2023-03-05T15:55:05;1.98;;;0.90;;
58581;SDS011;44361;51.476;5.700;2023-03-05T15:57:32;1.95;;;0.80;;
58581;SDS011;44361;51.476;5.700;2023-03-05T16:00:00;1.75;;;1.02;;
58581;SDS011;44361;51.476;5.700;2023-03-05T16:02:25;1.80;;;0.90;;
58581;SDS011;44361;51.476;5.700;2023-03-05T16:04:51;3.20;;;1.05;;
58581;SDS011;44361;51.476;5.700;2023-03-05T16:07:16;1.77;;;0.75;;
58581;SDS011;44361;51.476;5.700;2023-03-05T16:09:43;2.63;;;0.98;;
58581;SDS011;44361;51.476;5.700;2023-03-05T16:12:13;2.92;;;1.10;;
58581;SDS011;44361;51.476;5.700;2023-03-05T16:14:42;3.20;;;1.13;;
58581;SDS011;44361;51.476;5.700;2023-03-05T16:17:09;2.00;;;1.00;;
58581;SDS011;44361;51.476;5.700;2023-03-05T16:19:35;5.38;;;1.50;;
58581;SDS011;44361;51.476;5.700;2023-03-05T16:22:05;4.47;;;1.90;;
58581;SDS011;44361;51.476;5.700;2023-03-05T16:24:31;4.80;;;1.70;;
58581;SDS011;44361;51.476;5.700;2023-03-05T16:26:57;3.00;;;1.50;;